Time;durP1;ratioP1;P1;durP2;ratioP2;P2;SDS_P1;SDS_P2;PMS_P1;PMS_P2;Temp;Humidity;BMP_temperature;BMP_pressure;BME280_temperature;BME280_humidity;BME280_pressure;Samples;Min_cycle;Max_cycle;Signal;HPM_P1;HPM_P2
2023/09/20 00:02:18;;;;;;;4.60;3.00;;;;;;;;;;110295;268;42187;-36
2023/09/20 00:04:53;;;;;;;5.20;3.20;;;;;;;;;;110303;268;40042;-36
2023/09/20 00:07:30;;;;;;;5.80;2.90;;;;;;;;;;110347;268;39861;-36
2023/09/20 00:10:12;;;;;;;5.10;2.70;;;;;;;;;;110250;268;48735;-36
2023/09/20 00:12:51;;;;;;;6.20;3.20;;;;;;;;;;110281;268;43227;-36
2023/09/20 00:15:26;;;;;;;4.70;2.90;;;;;;;;;;110278;268;38786;-36
2023/09/20 00:18:00;;;;;;;5.30;2.90;;;;;;;;;;110232;268;39978;-36
2023/09/20 00:20:39;;;;;;;4.80;3.00;;;;;;;;;;110339;268;49274;-36
2023/09/20 00:23:20;;;;;;;4.60;2.80;;;;;;;;;;110335;268;43602;-36
2023/09/20 00:25:55;;;;;;;4.80;3.00;;;;;;;;;;110316;268;38951;-36
2023/09/20 00:28:33;;;;;;;5.30;3.20;;;;;;;;;;110308;261;39260;-36
2023/09/20 00:31:09;;;;;;;5.30;3.00;;;;;;;;;;110295;268;44112;-36
2023/09/20 00:33:45;;;;;;;5.20;2.70;;;;;;;;;;110354;268;41920;-36
2023/09/20 00:36:23;;;;;;;4.10;2.60;;;;;;;;;;110309;268;39001;-36
2023/09/20 00:38:59;;;;;;;5.40;2.90;;;;;;;;;;110251;268;39861;-36
2023/09/20 00:41:37;;;;;;;5.10;2.60;;;;;;;;;;110259;268;43170;-36
2023/09/20 00:44:11;;;;;;;5.00;2.90;;;;;;;;;;110291;268;42159;-36
2023/09/20 00:46:46;;;;;;;5.00;2.70;;;;;;;;;;110331;268;40133;-36
2023/09/20 00:49:22;;;;;;;4.80;2.80;;;;;;;;;;110244;268;41011;-36
2023/09/20 00:51:59;;;;;;;4.60;2.60;;;;;;;;;;110373;268;42880;-36
2023/09/20 00:54:34;;;;;;;4.00;2.50;;;;;;;;;;110385;268;42253;-36
2023/09/20 00:57:12;;;;;;;4.50;2.60;;;;;;;;;;110351;268;39761;-35
2023/09/20 00:59:47;;;;;;;4.90;2.40;;;;;;;;;;110295;268;39567;-35
2023/09/20 01:02:22;;;;;;;4.50;2.70;;;;;;;;;;110358;268;43126;-35
2023/09/20 01:04:58;;;;;;;5.20;2.90;;;;;;;;;;110366;268;43235;-36
2023/09/20 01:07:34;;;;;;;5.30;2.60;;;;;;;;;;110380;268;38792;-36
2023/09/20 01:10:10;;;;;;;4.60;2.40;;;;;;;;;;110350;268;39885;-36
2023/09/20 01:12:45;;;;;;;4.40;2.60;;;;;;;;;;110333;268;43150;-36
2023/09/20 01:15:21;;;;;;;4.70;2.70;;;;;;;;;;110307;268;42230;-36
2023/09/20 01:17:57;;;;;;;5.20;2.70;;;;;;;;;;110323;268;38516;-36
2023/09/20 01:20:33;;;;;;;4.60;2.70;;;;;;;;;;110289;268;39887;-36
2023/09/20 01:23:09;;;;;;;4.40;2.50;;;;;;;;;;110331;268;42737;-37
2023/09/20 01:25:44;;;;;;;4.50;2.60;;;;;;;;;;110299;268;42037;-36
2023/09/20 01:28:22;;;;;;;4.70;2.70;;;;;;;;;;110219;268;175577;-36
2023/09/20 01:31:00;;;;;;;5.20;2.50;;;;;;;;;;110294;268;39615;-36
2023/09/20 01:33:35;;;;;;;4.20;2.50;;;;;;;;;;110334;268;42593;-36
2023/09/20 01:36:09;;;;;;;5.70;2.60;;;;;;;;;;110322;268;42209;-36
2023/09/20 01:38:45;;;;;;;4.40;2.60;;;;;;;;;;110371;268;38661;-36
2023/09/20 01:41:19;;;;;;;4.20;2.50;;;;;;;;;;110297;268;39588;-36
2023/09/20 01:43:56;;;;;;;4.70;2.60;;;;;;;;;;110351;268;42924;-36
2023/09/20 01:46:33;;;;;;;4.30;2.50;;;;;;;;;;110210;268;175610;-36
2023/09/20 01:49:08;;;;;;;4.60;2.70;;;;;;;;;;110358;268;38623;-36
2023/09/20 01:51:43;;;;;;;4.50;2.40;;;;;;;;;;110277;268;39551;-36
2023/09/20 01:54:20;;;;;;;3.90;2.30;;;;;;;;;;110337;268;42545;-36
2023/09/20 01:56:56;;;;;;;5.00;2.50;;;;;;;;;;110339;268;42184;-36
2023/09/20 01:59:32;;;;;;;4.80;2.80;;;;;;;;;;110348;268;38682;-36
2023/09/20 02:02:10;;;;;;;4.40;2.50;;;;;;;;;;110284;268;39874;-36
2023/09/20 02:04:44;;;;;;;4.30;2.40;;;;;;;;;;110336;268;43214;-36
2023/09/20 02:07:23;;;;;;;4.60;2.70;;;;;;;;;;110339;268;42148;-36
2023/09/20 02:09:59;;;;;;;4.50;2.50;;;;;;;;;;110331;268;38434;-36
2023/09/20 02:12:34;;;;;;;4.30;2.60;;;;;;;;;;110348;268;39760;-36
2023/09/20 02:15:13;;;;;;;4.60;2.70;;;;;;;;;;110325;268;43091;-36
2023/09/20 02:17:50;;;;;;;4.20;2.60;;;;;;;;;;110262;268;175562;-36
2023/09/20 02:20:33;;;;;;;4.40;2.70;;;;;;;;;;110344;268;38755;-36
2023/09/20 02:23:12;;;;;;;4.30;2.50;;;;;;;;;;110343;268;45877;-36
2023/09/20 02:25:48;;;;;;;4.80;2.60;;;;;;;;;;110271;268;43637;-36
2023/09/20 02:28:23;;;;;;;4.60;2.60;;;;;;;;;;110320;268;42137;-37
2023/09/20 02:31:00;;;;;;;4.90;2.60;;;;;;;;;;110307;268;39058;-37
2023/09/20 02:33:34;;;;;;;4.20;2.40;;;;;;;;;;110204;268;175548;-37
2023/09/20 02:36:12;;;;;;;4.10;2.40;;;;;;;;;;110311;268;42692;-36
2023/09/20 02:38:48;;;;;;;4.70;2.50;;;;;;;;;;109539;268;891429;-37
2023/09/20 02:41:25;;;;;;;4.20;2.30;;;;;;;;;;110309;268;38754;-35
2023/09/20 02:44:02;;;;;;;5.00;2.40;;;;;;;;;;110321;268;39750;-35
2023/09/20 02:46:38;;;;;;;4.20;2.50;;;;;;;;;;110233;268;175568;-36
2023/09/20 02:49:15;;;;;;;4.10;2.40;;;;;;;;;;110360;268;42031;-36
2023/09/20 02:51:51;;;;;;;4.20;2.30;;;;;;;;;;110326;268;38826;-37
2023/09/20 02:54:28;;;;;;;4.40;2.40;;;;;;;;;;110334;268;39857;-36
2023/09/20 02:57:03;;;;;;;3.90;2.40;;;;;;;;;;110332;268;42721;-36
2023/09/20 02:59:38;;;;;;;4.10;2.40;;;;;;;;;;110217;268;175541;-36
2023/09/20 03:02:15;;;;;;;4.60;2.50;;;;;;;;;;110332;268;38459;-36
2023/09/20 03:04:49;;;;;;;4.00;2.20;;;;;;;;;;110333;268;40761;-37
2023/09/20 03:07:27;;;;;;;4.20;2.30;;;;;;;;;;110318;268;43106;-36
2023/09/20 03:10:05;;;;;;;4.00;2.50;;;;;;;;;;110376;268;42141;-37
2023/09/20 03:12:45;;;;;;;4.40;2.40;;;;;;;;;;110357;268;38824;-36
2023/09/20 03:15:22;;;;;;;4.20;2.40;;;;;;;;;;110397;268;39622;-36
2023/09/20 03:18:06;;;;;;;4.60;2.50;;;;;;;;;;110380;268;43096;-36
2023/09/20 03:20:43;;;;;;;4.80;2.50;;;;;;;;;;110399;268;41983;-36
2023/09/20 03:23:21;;;;;;;5.00;2.60;;;;;;;;;;110374;268;39855;-36
2023/09/20 03:25:54;;;;;;;4.30;2.70;;;;;;;;;;110412;268;39311;-36
2023/09/20 03:28:29;;;;;;;4.50;2.40;;;;;;;;;;110406;268;42939;-36
2023/09/20 03:31:06;;;;;;;4.50;2.50;;;;;;;;;;110443;268;42214;-37
2023/09/20 03:33:40;;;;;;;4.40;2.30;;;;;;;;;;110366;268;38779;-36
2023/09/20 03:36:16;;;;;;;5.30;2.30;;;;;;;;;;110414;268;39300;-37
2023/09/20 03:38:49;;;;;;;4.60;2.40;;;;;;;;;;110274;268;174998;-36
2023/09/20 03:41:24;;;;;;;4.70;2.30;;;;;;;;;;110402;268;43183;-37
2023/09/20 03:44:00;;;;;;;4.50;2.50;;;;;;;;;;110316;268;38701;-36
2023/09/20 03:46:35;;;;;;;4.90;2.60;;;;;;;;;;110402;268;39622;-37
2023/09/20 03:49:10;;;;;;;5.20;2.50;;;;;;;;;;110370;268;42933;-37
2023/09/20 03:51:45;;;;;;;5.00;2.50;;;;;;;;;;110304;268;42054;-37
2023/09/20 03:54:24;;;;;;;4.40;2.40;;;;;;;;;;110235;268;38732;-37
2023/09/20 03:56:57;;;;;;;5.00;2.40;;;;;;;;;;110226;268;109042;-37
2023/09/20 03:59:35;;;;;;;4.80;2.40;;;;;;;;;;110204;268;45167;-37
2023/09/20 04:02:13;;;;;;;4.40;2.20;;;;;;;;;;110341;268;41784;-37
2023/09/20 04:04:50;;;;;;;4.50;2.40;;;;;;;;;;110262;268;38534;-37
2023/09/20 04:07:28;;;;;;;4.80;2.60;;;;;;;;;;110292;268;39724;-37
2023/09/20 04:10:03;;;;;;;5.40;2.30;;;;;;;;;;110317;268;43042;-37
2023/09/20 04:12:39;;;;;;;4.70;2.60;;;;;;;;;;110312;268;41947;-37
2023/09/20 04:15:16;;;;;;;5.00;2.30;;;;;;;;;;110294;268;44654;-37
2023/09/20 04:17:51;;;;;;;4.70;2.50;;;;;;;;;;110354;268;39769;-37
2023/09/20 04:20:32;;;;;;;4.60;2.40;;;;;;;;;;110322;268;43122;-35
2023/09/20 04:23:06;;;;;;;4.50;2.30;;;;;;;;;;110329;268;42012;-36
2023/09/20 04:25:40;;;;;;;5.00;2.40;;;;;;;;;;110315;268;45073;-37
2023/09/20 04:28:18;;;;;;;4.20;2.40;;;;;;;;;;110365;268;39692;-37
2023/09/20 04:30:52;;;;;;;4.40;2.20;;;;;;;;;;110368;268;42787;-37
2023/09/20 04:33:29;;;;;;;5.00;2.50;;;;;;;;;;110294;268;42254;-37
2023/09/20 04:36:04;;;;;;;3.80;2.30;;;;;;;;;;110205;268;45891;-37
2023/09/20 04:38:37;;;;;;;4.50;2.20;;;;;;;;;;110357;268;39567;-37
2023/09/20 04:41:13;;;;;;;4.00;2.20;;;;;;;;;;110335;268;42900;-37
2023/09/20 04:43:49;;;;;;;3.90;2.20;;;;;;;;;;109642;268;891030;-37
2023/09/20 04:46:25;;;;;;;5.10;2.50;;;;;;;;;;110190;268;45985;-37
2023/09/20 04:49:02;;;;;;;3.90;2.10;;;;;;;;;;110339;268;39613;-37
2023/09/20 04:51:37;;;;;;;4.50;2.20;;;;;;;;;;110308;268;42850;-37
2023/09/20 04:54:12;;;;;;;4.50;2.40;;;;;;;;;;110258;268;43292;-37
2023/09/20 04:56:47;;;;;;;4.20;2.30;;;;;;;;;;110320;268;39200;-37
2023/09/20 04:59:22;;;;;;;4.10;2.40;;;;;;;;;;110318;268;39634;-37
2023/09/20 05:02:00;;;;;;;4.30;2.20;;;;;;;;;;110318;268;42523;-37
2023/09/20 05:04:35;;;;;;;4.60;2.20;;;;;;;;;;110299;268;42086;-37
2023/09/20 05:07:10;;;;;;;4.60;2.30;;;;;;;;;;110334;268;38989;-37
2023/09/20 05:09:44;;;;;;;4.50;2.50;;;;;;;;;;110144;268;175590;-35
2023/09/20 05:12:17;;;;;;;4.70;2.20;;;;;;;;;;110331;268;43993;-36
2023/09/20 05:14:51;;;;;;;4.20;2.20;;;;;;;;;;110299;268;43325;-37
2023/09/20 05:17:27;;;;;;;3.90;2.10;;;;;;;;;;110333;268;38664;-37
2023/09/20 05:20:02;;;;;;;4.00;2.30;;;;;;;;;;110428;268;39599;-37
2023/09/20 05:22:37;;;;;;;4.20;2.20;;;;;;;;;;110343;268;42898;-37
2023/09/20 05:25:12;;;;;;;4.50;2.30;;;;;;;;;;110274;268;41755;-37
2023/09/20 05:27:45;;;;;;;4.40;2.30;;;;;;;;;;110362;268;41412;-37
2023/09/20 05:30:21;;;;;;;4.50;2.30;;;;;;;;;;110336;268;41215;-37
2023/09/20 05:32:56;;;;;;;4.20;2.30;;;;;;;;;;110333;268;42783;-37
2023/09/20 05:35:31;;;;;;;4.50;2.30;;;;;;;;;;110327;268;42438;-37
2023/09/20 05:38:06;;;;;;;3.90;2.00;;;;;;;;;;110398;268;38706;-37
2023/09/20 05:40:39;;;;;;;4.70;2.20;;;;;;;;;;110326;268;39720;-37
2023/09/20 05:43:13;;;;;;;5.60;2.40;;;;;;;;;;110326;268;42892;-37
2023/09/20 05:45:46;;;;;;;4.60;2.20;;;;;;;;;;110209;268;175563;-37
2023/09/20 05:48:20;;;;;;;5.40;2.60;;;;;;;;;;110332;268;39054;-37
2023/09/20 05:50:59;;;;;;;6.10;2.40;;;;;;;;;;110353;268;39689;-37
2023/09/20 05:53:33;;;;;;;4.90;2.20;;;;;;;;;;110350;268;44362;-37
2023/09/20 05:56:12;;;;;;;5.50;2.40;;;;;;;;;;110319;268;41970;-37
2023/09/20 05:58:46;;;;;;;5.90;2.60;;;;;;;;;;110318;268;38772;-37
2023/09/20 06:01:19;;;;;;;5.40;2.50;;;;;;;;;;110392;268;39657;-37
2023/09/20 06:03:56;;;;;;;4.30;2.40;;;;;;;;;;110355;268;42970;-35
2023/09/20 06:06:30;;;;;;;4.30;2.10;;;;;;;;;;110168;268;175543;-36
2023/09/20 06:09:07;;;;;;;4.40;2.10;;;;;;;;;;110318;268;38991;-37
2023/09/20 06:11:43;;;;;;;4.70;2.40;;;;;;;;;;110383;268;39740;-37
2023/09/20 06:14:17;;;;;;;5.40;2.40;;;;;;;;;;110349;268;43051;-37
2023/09/20 06:16:54;;;;;;;4.60;2.30;;;;;;;;;;110321;268;41951;-37
2023/09/20 06:19:30;;;;;;;4.80;2.20;;;;;;;;;;109714;268;907223;-37
2023/09/20 06:22:07;;;;;;;4.30;2.10;;;;;;;;;;110392;268;39776;-37
2023/09/20 06:24:46;;;;;;;4.30;2.20;;;;;;;;;;110353;268;42735;-37
2023/09/20 06:27:21;;;;;;;4.60;2.40;;;;;;;;;;110250;268;43327;-37
2023/09/20 06:29:55;;;;;;;4.70;2.20;;;;;;;;;;110307;268;38856;-37
2023/09/20 06:32:33;;;;;;;4.60;2.20;;;;;;;;;;110280;268;39880;-37
2023/09/20 06:35:10;;;;;;;4.90;2.40;;;;;;;;;;110338;268;42820;-37
2023/09/20 06:37:47;;;;;;;5.20;2.30;;;;;;;;;;110363;268;41989;-37
2023/09/20 06:40:23;;;;;;;4.40;2.10;;;;;;;;;;110369;268;38738;-37
2023/09/20 06:42:58;;;;;;;5.40;2.40;;;;;;;;;;110375;268;39910;-37
2023/09/20 06:45:32;;;;;;;5.00;2.60;;;;;;;;;;110405;268;43245;-37
2023/09/20 06:48:07;;;;;;;4.60;2.40;;;;;;;;;;110294;268;43488;-35
2023/09/20 06:50:43;;;;;;;4.80;2.60;;;;;;;;;;110391;268;40139;-35
2023/09/20 06:53:18;;;;;;;4.80;2.50;;;;;;;;;;110409;268;41147;-35
2023/09/20 06:55:51;;;;;;;5.30;2.80;;;;;;;;;;110365;268;42790;-36
2023/09/20 06:58:25;;;;;;;6.00;3.30;;;;;;;;;;110306;268;43280;-35
2023/09/20 07:00:59;;;;;;;5.00;2.60;;;;;;;;;;110338;268;39958;-36
2023/09/20 07:03:33;;;;;;;5.60;2.80;;;;;;;;;;110384;268;39738;-35
2023/09/20 07:06:06;;;;;;;5.70;2.90;;;;;;;;;;110389;268;42952;-35
2023/09/20 07:08:40;;;;;;;6.10;2.70;;;;;;;;;;110360;268;42052;-35
2023/09/20 07:11:15;;;;;;;5.70;2.90;;;;;;;;;;110428;268;38820;-35
2023/09/20 07:13:48;;;;;;;6.00;3.10;;;;;;;;;;110357;268;39618;-36
2023/09/20 07:16:22;;;;;;;6.10;2.90;;;;;;;;;;110339;268;43984;-35
2023/09/20 07:18:58;;;;;;;6.90;3.10;;;;;;;;;;110373;268;42067;-35
2023/09/20 07:21:37;;;;;;;5.80;2.90;;;;;;;;;;110403;268;38713;-35
2023/09/20 07:24:14;;;;;;;5.00;2.80;;;;;;;;;;110430;268;41022;-35
2023/09/20 07:26:51;;;;;;;6.00;3.20;;;;;;;;;;110395;268;42971;-35
2023/09/20 07:29:26;;;;;;;6.20;3.30;;;;;;;;;;110240;268;202343;-35
2023/09/20 07:32:00;;;;;;;6.70;3.60;;;;;;;;;;110363;268;38745;-35
2023/09/20 07:34:35;;;;;;;5.80;3.50;;;;;;;;;;110385;268;39637;-35
2023/09/20 07:37:11;;;;;;;6.90;4.30;;;;;;;;;;110265;268;175617;-36
2023/09/20 07:39:46;;;;;;;5.70;3.90;;;;;;;;;;110316;268;47860;-36
2023/09/20 07:42:21;;;;;;;6.40;3.80;;;;;;;;;;110403;268;39970;-37
2023/09/20 07:44:57;;;;;;;6.00;3.90;;;;;;;;;;110392;261;39748;-39
2023/09/20 07:47:34;;;;;;;6.60;3.70;;;;;;;;;;110346;261;44014;-36
2023/09/20 07:50:11;;;;;;;6.00;3.60;;;;;;;;;;110352;266;47936;-36
2023/09/20 07:52:46;;;;;;;6.20;3.60;;;;;;;;;;110451;266;38856;-37
2023/09/20 07:55:19;;;;;;;6.30;3.90;;;;;;;;;;110420;263;39634;-36
2023/09/20 07:57:58;;;;;;;6.70;4.00;;;;;;;;;;110433;266;42909;-36
2023/09/20 08:00:32;;;;;;;5.90;3.60;;;;;;;;;;110391;266;47932;-36
2023/09/20 08:03:06;;;;;;;5.20;3.40;;;;;;;;;;110435;266;38872;-34
2023/09/20 08:05:41;;;;;;;6.20;3.40;;;;;;;;;;110432;266;39789;-36
2023/09/20 08:08:18;;;;;;;6.20;3.70;;;;;;;;;;110427;266;43080;-36
2023/09/20 08:10:52;;;;;;;5.50;3.20;;;;;;;;;;110391;266;50214;-36
2023/09/20 08:13:47;;;;;;;5.60;3.30;;;;;;;;;;110413;266;39147;-36
2023/09/20 08:16:21;;;;;;;6.10;3.50;;;;;;;;;;110405;266;39300;-35
2023/09/20 08:19:16;;;;;;;5.40;2.90;;;;;;;;;;110301;260;42770;-36
2023/09/20 08:21:53;;;;;;;5.10;3.00;;;;;;;;;;109578;269;43621;-35
2023/09/20 09:02:18;;;;;;;5.70;2.80;;;;;;;;;;112369;213;43034;-34
2023/09/20 09:04:56;;;;;;;4.90;2.90;;;;;;;;;;112383;213;42352;-34
2023/09/20 09:07:31;;;;;;;5.40;2.90;;;;;;;;;;112433;212;46433;-33
2023/09/20 09:10:08;;;;;;;5.00;2.60;;;;;;;;;;112494;212;40917;-33
2023/09/20 09:12:45;;;;;;;6.00;3.00;;;;;;;;;;112429;212;42618;-34
2023/09/20 09:15:21;;;;;;;7.30;3.40;;;;;;;;;;112348;212;43319;-33
2023/09/20 09:17:57;;;;;;;6.00;3.10;;;;;;;;;;112432;212;38775;-33
2023/09/20 09:20:36;;;;;;;6.10;2.80;;;;;;;;;;112400;212;40113;-34
2023/09/20 09:23:13;;;;;;;5.70;3.10;;;;;;;;;;112412;211;42801;-34
2023/09/20 09:25:48;;;;;;;5.90;3.10;;;;;;;;;;112474;212;41941;-34
2023/09/20 09:28:23;;;;;;;7.30;3.10;;;;;;;;;;112594;212;39899;-33
2023/09/20 09:31:01;;;;;;;5.50;2.90;;;;;;;;;;112551;212;39685;-34
2023/09/20 09:33:39;;;;;;;6.40;3.00;;;;;;;;;;112584;212;43019;-34
2023/09/20 09:36:14;;;;;;;6.00;3.00;;;;;;;;;;112382;212;43359;-33
2023/09/20 09:38:49;;;;;;;5.90;2.90;;;;;;;;;;112438;212;38696;-36
2023/09/20 09:41:22;;;;;;;6.20;2.90;;;;;;;;;;112425;212;41025;-34
2023/09/20 09:44:03;;;;;;;5.80;2.60;;;;;;;;;;112374;212;42860;-33
2023/09/20 09:46:40;;;;;;;5.30;2.80;;;;;;;;;;111676;212;892067;-34
2023/09/20 09:49:18;;;;;;;4.90;2.40;;;;;;;;;;112436;212;38493;-35
2023/09/20 09:51:54;;;;;;;5.20;2.60;;;;;;;;;;112416;212;39805;-35
2023/09/20 09:54:30;;;;;;;4.50;2.30;;;;;;;;;;112346;212;44100;-34
2023/09/20 09:57:08;;;;;;;4.90;2.30;;;;;;;;;;112351;212;42259;-35
2023/09/20 09:59:45;;;;;;;5.40;2.40;;;;;;;;;;112545;212;38737;-33
2023/09/20 10:02:22;;;;;;;4.80;2.30;;;;;;;;;;112531;212;41091;-33
2023/09/20 10:05:04;;;;;;;4.60;2.30;;;;;;;;;;112506;212;42861;-33
2023/09/20 10:07:48;;;;;;;5.00;2.30;;;;;;;;;;112416;212;42530;-33
2023/09/20 10:10:27;;;;;;;4.30;2.10;;;;;;;;;;112481;212;37655;-32
2023/09/20 10:13:11;;;;;;;4.90;2.30;;;;;;;;;;112533;212;39730;-32
2023/09/20 10:15:50;;;;;;;5.00;2.40;;;;;;;;;;112448;212;42920;-32
2023/09/20 10:18:36;;;;;;;4.90;2.20;;;;;;;;;;112434;212;42016;-34
2023/09/20 10:21:18;;;;;;;5.80;2.30;;;;;;;;;;112480;212;39939;-34
2023/09/20 10:24:00;;;;;;;5.50;2.30;;;;;;;;;;112465;212;39688;-34
2023/09/20 10:26:42;;;;;;;5.00;2.20;;;;;;;;;;112440;212;42708;-33
2023/09/20 10:29:32;;;;;;;5.00;2.30;;;;;;;;;;112468;212;47656;-33
2023/09/20 10:32:17;;;;;;;5.00;2.10;;;;;;;;;;112438;212;38710;-33
2023/09/20 10:35:27;;;;;;;4.50;2.10;;;;;;;;;;112418;212;40961;-33
2023/09/20 10:38:25;;;;;;;5.10;1.90;;;;;;;;;;112309;212;176504;-33
2023/09/20 10:41:10;;;;;;;4.60;2.10;;;;;;;;;;112465;212;41804;-33
2023/09/20 10:43:54;;;;;;;4.40;1.90;;;;;;;;;;112210;212;38482;-33
2023/09/20 10:46:37;;;;;;;4.10;1.80;;;;;;;;;;112459;212;39624;-33
2023/09/20 10:49:16;;;;;;;5.00;2.20;;;;;;;;;;112379;212;44094;-32
2023/09/20 10:51:53;;;;;;;4.20;1.90;;;;;;;;;;112459;212;42036;-33
2023/09/20 10:54:34;;;;;;;5.10;2.10;;;;;;;;;;112445;212;38444;-33
2023/09/20 10:57:11;;;;;;;4.80;1.70;;;;;;;;;;112424;212;40131;-33
2023/09/20 10:59:49;;;;;;;4.70;1.80;;;;;;;;;;112628;211;49911;-33
2023/09/20 11:02:26;;;;;;;5.60;2.00;;;;;;;;;;112427;211;175565;-33
2023/09/20 11:05:07;;;;;;;5.00;1.90;;;;;;;;;;112535;211;40307;-33
2023/09/20 11:07:50;;;;;;;5.00;2.10;;;;;;;;;;112500;211;40860;-33
2023/09/20 11:10:31;;;;;;;5.10;2.00;;;;;;;;;;112533;211;50495;-33
2023/09/20 11:13:08;;;;;;;5.60;1.90;;;;;;;;;;112562;211;42095;-33
2023/09/20 11:15:48;;;;;;;4.90;1.80;;;;;;;;;;112589;211;39031;-33
2023/09/20 11:18:24;;;;;;;4.60;1.90;;;;;;;;;;112480;211;39655;-33
2023/09/20 11:20:59;;;;;;;5.30;1.80;;;;;;;;;;112434;211;42425;-33
2023/09/20 11:23:37;;;;;;;4.30;1.90;;;;;;;;;;112534;211;42318;-33
2023/09/20 11:26:15;;;;;;;5.10;1.90;;;;;;;;;;112525;211;40000;-33
2023/09/20 11:28:53;;;;;;;4.50;1.70;;;;;;;;;;112455;211;39970;-33
2023/09/20 11:31:35;;;;;;;4.70;2.00;;;;;;;;;;112358;211;42946;-33
2023/09/20 11:34:10;;;;;;;5.10;1.90;;;;;;;;;;112572;211;41928;-33
2023/09/20 11:36:48;;;;;;;4.40;1.80;;;;;;;;;;112594;211;38710;-33
2023/09/20 11:39:29;;;;;;;4.70;1.90;;;;;;;;;;112512;211;39968;-33
2023/09/20 11:42:05;;;;;;;;;;;;;;;;;;112655;211;42417;-33
2023/09/20 11:44:42;;;;;;;5.50;2.00;;;;;;;;;;112614;211;41790;-33
2023/09/20 11:47:21;;;;;;;4.10;1.70;;;;;;;;;;112637;211;38495;-33
2023/09/20 11:50:00;;;;;;;5.40;2.20;;;;;;;;;;112514;211;39838;-33
2023/09/20 11:52:34;;;;;;;4.50;1.90;;;;;;;;;;112509;211;42833;-33
2023/09/20 11:55:19;;;;;;;4.30;1.60;;;;;;;;;;112511;211;42120;-33
2023/09/20 11:57:56;;;;;;;4.40;1.90;;;;;;;;;;112491;211;38907;-33
2023/09/20 12:00:34;;;;;;;5.00;1.80;;;;;;;;;;112430;211;39742;-33
2023/09/20 12:03:13;;;;;;;3.70;1.80;;;;;;;;;;112281;211;42745;-33
2023/09/20 12:05:48;;;;;;;4.30;1.80;;;;;;;;;;112636;211;42009;-33
2023/09/20 12:08:29;;;;;;;5.20;1.90;;;;;;;;;;112656;211;38691;-33
2023/09/20 12:11:04;;;;;;;4.10;1.80;;;;;;;;;;112605;212;39902;-33
2023/09/20 12:13:38;;;;;;;4.50;1.90;;;;;;;;;;112643;211;42766;-33
2023/09/20 12:16:12;;;;;;;4.80;1.70;;;;;;;;;;112677;211;42657;-33
2023/09/20 12:18:46;;;;;;;4.20;1.90;;;;;;;;;;112551;212;38802;-33
2023/09/20 12:21:21;;;;;;;4.20;1.80;;;;;;;;;;112575;212;39649;-33
2023/09/20 12:23:56;;;;;;;5.00;2.20;;;;;;;;;;112608;211;42891;-33
2023/09/20 12:26:30;;;;;;;4.90;2.00;;;;;;;;;;112597;212;42452;-33
2023/09/20 12:29:06;;;;;;;4.70;2.00;;;;;;;;;;112616;211;38885;-33
2023/09/20 12:31:40;;;;;;;5.10;2.10;;;;;;;;;;112622;211;39813;-32
2023/09/20 12:34:16;;;;;;;6.00;2.30;;;;;;;;;;112609;212;44118;-32
2023/09/20 12:36:53;;;;;;;4.70;2.00;;;;;;;;;;112558;212;42078;-32
2023/09/20 12:39:30;;;;;;;4.90;2.00;;;;;;;;;;112633;212;38940;-32
2023/09/20 12:42:04;;;;;;;5.40;2.40;;;;;;;;;;112507;212;46453;-32
2023/09/20 12:44:42;;;;;;;4.80;1.80;;;;;;;;;;112527;212;42923;-32
2023/09/20 12:47:21;;;;;;;5.10;1.90;;;;;;;;;;112559;211;43449;-33
2023/09/20 12:49:55;;;;;;;5.00;2.10;;;;;;;;;;112594;212;39133;-33
2023/09/20 12:52:30;;;;;;;4.60;1.90;;;;;;;;;;112554;211;46014;-33
2023/09/20 12:55:06;;;;;;;5.90;2.00;;;;;;;;;;112566;212;42774;-33
2023/09/20 12:57:46;;;;;;;4.90;1.90;;;;;;;;;;112516;212;43493;-33
2023/09/20 13:00:21;;;;;;;4.50;1.90;;;;;;;;;;112505;212;39853;-33
2023/09/20 13:03:19;;;;;;;4.90;2.00;;;;;;;;;;112591;212;40882;-33
2023/09/20 13:05:54;;;;;;;4.00;2.00;;;;;;;;;;112592;212;42796;-33
2023/09/20 13:08:28;;;;;;;4.60;2.00;;;;;;;;;;112417;212;175219;-33
2023/09/20 13:11:05;;;;;;;4.60;1.80;;;;;;;;;;112437;212;38762;-33
2023/09/20 13:13:44;;;;;;;4.70;1.90;;;;;;;;;;112329;212;175465;-33
2023/09/20 13:16:20;;;;;;;4.60;1.90;;;;;;;;;;112423;212;43071;-33
2023/09/20 13:18:54;;;;;;;4.80;1.70;;;;;;;;;;112432;212;42243;-33
2023/09/20 13:21:30;;;;;;;3.90;1.90;;;;;;;;;;112379;212;39028;-35
2023/09/20 13:24:08;;;;;;;3.80;1.80;;;;;;;;;;112404;212;39777;-34
2023/09/20 13:26:46;;;;;;;4.40;1.60;;;;;;;;;;112449;212;42937;-34
2023/09/20 13:29:23;;;;;;;4.90;1.60;;;;;;;;;;112439;212;43051;-34
2023/09/20 13:32:00;;;;;;;4.90;1.90;;;;;;;;;;112412;212;39354;-33
2023/09/20 13:34:34;;;;;;;4.70;1.90;;;;;;;;;;112461;212;39623;-35
2023/09/20 13:37:12;;;;;;;3.70;1.60;;;;;;;;;;112445;212;42804;-33
2023/09/20 13:39:50;;;;;;;4.20;1.90;;;;;;;;;;112441;212;42099;-36
2023/09/20 13:42:28;;;;;;;5.60;1.80;;;;;;;;;;112413;212;38654;-32
2023/09/20 13:45:07;;;;;;;4.50;1.60;;;;;;;;;;112458;212;40108;-33
2023/09/20 13:47:43;;;;;;;4.30;1.90;;;;;;;;;;112528;212;42787;-34
2023/09/20 13:50:18;;;;;;;4.50;1.60;;;;;;;;;;112612;212;41982;-35
2023/09/20 13:52:53;;;;;;;4.60;1.70;;;;;;;;;;112537;211;41044;-39
2023/09/20 13:55:29;;;;;;;4.90;1.80;;;;;;;;;;112416;211;192865;-35
2023/09/20 13:58:07;;;;;;;5.80;1.70;;;;;;;;;;112616;212;42936;-33
2023/09/20 14:00:47;;;;;;;3.90;1.50;;;;;;;;;;112583;211;42235;-34
2023/09/20 14:03:23;;;;;;;4.30;1.80;;;;;;;;;;112509;212;38721;-33
2023/09/20 14:06:01;;;;;;;5.30;1.90;;;;;;;;;;112572;211;39762;-34
2023/09/20 14:08:37;;;;;;;4.30;1.60;;;;;;;;;;112609;211;42714;-34
2023/09/20 14:11:17;;;;;;;4.00;1.50;;;;;;;;;;112574;211;42178;-34
2023/09/20 14:13:51;;;;;;;4.30;1.60;;;;;;;;;;112520;211;38698;-34
2023/09/20 14:16:25;;;;;;;4.60;1.70;;;;;;;;;;112630;211;38946;-33
2023/09/20 14:18:59;;;;;;;4.60;1.60;;;;;;;;;;112637;211;43968;-33
2023/09/20 14:21:35;;;;;;;4.30;1.90;;;;;;;;;;112606;211;42477;-34
2023/09/20 14:24:15;;;;;;;3.80;1.70;;;;;;;;;;112550;211;46841;-34
2023/09/20 14:26:51;;;;;;;4.30;1.70;;;;;;;;;;112605;211;39358;-34
2023/09/20 14:29:25;;;;;;;4.50;1.70;;;;;;;;;;112607;211;42706;-34
2023/09/20 14:32:09;;;;;;;3.60;1.70;;;;;;;;;;112560;211;42393;-34
2023/09/20 14:34:46;;;;;;;4.30;1.70;;;;;;;;;;112614;211;44496;-34
2023/09/20 14:37:23;;;;;;;3.50;1.60;;;;;;;;;;112614;211;39603;-34
2023/09/20 14:39:59;;;;;;;4.10;1.70;;;;;;;;;;112418;211;175435;-34
2023/09/20 14:42:33;;;;;;;4.30;1.60;;;;;;;;;;112577;212;42224;-33
2023/09/20 14:45:16;;;;;;;4.30;1.70;;;;;;;;;;112573;211;40044;-34
2023/09/20 14:47:50;;;;;;;3.60;1.40;;;;;;;;;;112549;211;39323;-34
2023/09/20 14:50:29;;;;;;;3.70;1.50;;;;;;;;;;112573;211;43129;-34
2023/09/20 14:53:04;;;;;;;4.50;2.00;;;;;;;;;;112478;211;42100;-34
2023/09/20 14:55:41;;;;;;;3.10;1.30;;;;;;;;;;112629;211;39214;-34
2023/09/20 14:58:17;;;;;;;4.90;1.50;;;;;;;;;;112586;212;39658;-34
2023/09/20 15:00:51;;;;;;;4.00;1.70;;;;;;;;;;112473;212;42955;-34
2023/09/20 15:03:28;;;;;;;3.70;1.70;;;;;;;;;;112431;212;41998;-34
2023/09/20 15:06:07;;;;;;;4.20;1.60;;;;;;;;;;112534;212;38848;-34
2023/09/20 15:08:43;;;;;;;4.20;1.80;;;;;;;;;;112447;212;40657;-34
2023/09/20 15:11:20;;;;;;;4.10;1.70;;;;;;;;;;112516;211;42480;-34
2023/09/20 15:13:54;;;;;;;4.00;1.60;;;;;;;;;;112508;211;43308;-34
2023/09/20 15:16:29;;;;;;;3.60;1.60;;;;;;;;;;112588;211;38747;-34
2023/09/20 15:19:04;;;;;;;3.70;1.70;;;;;;;;;;112569;211;40623;-33
2023/09/20 15:21:38;;;;;;;3.60;1.60;;;;;;;;;;112566;211;42912;-33
2023/09/20 15:24:15;;;;;;;4.10;1.80;;;;;;;;;;112467;211;42248;-33
2023/09/20 15:26:52;;;;;;;4.00;1.80;;;;;;;;;;112609;211;40020;-33
2023/09/20 15:29:26;;;;;;;3.90;1.80;;;;;;;;;;112414;211;175459;-33
2023/09/20 15:32:01;;;;;;;4.30;1.90;;;;;;;;;;112605;211;43964;-33
2023/09/20 15:34:37;;;;;;;4.00;1.90;;;;;;;;;;112466;211;42185;-33
2023/09/20 15:37:15;;;;;;;4.50;2.30;;;;;;;;;;112566;211;38717;-33
2023/09/20 15:39:49;;;;;;;4.00;2.00;;;;;;;;;;112586;211;39920;-33
2023/09/20 15:42:26;;;;;;;4.80;2.10;;;;;;;;;;112572;211;42747;-34
2023/09/20 15:45:03;;;;;;;4.60;2.10;;;;;;;;;;112490;211;42345;-34
2023/09/20 15:47:38;;;;;;;4.10;2.00;;;;;;;;;;112590;211;38848;-33
2023/09/20 15:50:17;;;;;;;4.40;1.80;;;;;;;;;;112554;211;41121;-34
2023/09/20 15:52:54;;;;;;;4.40;2.00;;;;;;;;;;112571;211;42882;-33
2023/09/20 15:55:29;;;;;;;4.80;1.90;;;;;;;;;;112504;211;42128;-33
2023/09/20 15:58:06;;;;;;;4.10;1.90;;;;;;;;;;112556;211;38697;-33
2023/09/20 16:00:44;;;;;;;4.60;1.80;;;;;;;;;;112590;210;39877;-33
2023/09/20 16:03:22;;;;;;;4.30;1.90;;;;;;;;;;112512;210;43049;-33
2023/09/20 16:05:57;;;;;;;3.80;1.80;;;;;;;;;;112538;210;42028;-33
2023/09/20 16:08:34;;;;;;;4.10;1.90;;;;;;;;;;112592;211;38734;-33
2023/09/20 16:11:11;;;;;;;4.40;2.00;;;;;;;;;;112588;210;39820;-33
2023/09/20 16:13:48;;;;;;;3.90;1.70;;;;;;;;;;112567;211;42729;-33
2023/09/20 16:16:23;;;;;;;3.80;1.90;;;;;;;;;;112580;211;42235;-33
2023/09/20 16:18:58;;;;;;;4.50;2.30;;;;;;;;;;112602;211;38862;-34